Terminal Aerodrome Forecast
Issued by NWS Boston, MA

Home | Current Version | Previous Version | Text Only | Print | Product List | Glossary On
Versions: 1 2 3 4 5 6 7 8 9 10 11 12 13 14 15 16 17 18 19 20 21 22
000
FTUS41 KBOX 111516 AAA
TAFPVD
TAF AMD
KPVD 111516Z 1115/1212 26004KT P6SM SCT250
     FM112100 21006KT P6SM OVC070
     FM120000 VRB03KT 5SM -SN OVC050
     FM120200 VRB03KT 3SM -SN OVC035
     FM120400 VRB03KT 2SM -SN OVC010=

USA.gov is the U.S. government's official web portal to all federal, state and local government web resources and services.